Time;durP1;ratioP1;P1;durP2;ratioP2;P2;SDS_P1;SDS_P2;PMS_P1;PMS_P2;Temp;Humidity;BMP_temperature;BMP_pressure;BME280_temperature;BME280_humidity;BME280_pressure;Samples;Min_cycle;Max_cycle;Signal;HPM_P1;HPM_P2
2022/11/29 00:00:17;;;;;;;12.10;4.50;;;;;;;1.79;75.38;100666.15;24465;1334;3051353;-70
2022/11/29 00:02:46;;;;;;;7.20;4.10;;;;;;;2.42;73.07;100668.52;24481;1334;3028459;-67
2022/11/29 00:05:18;;;;;;;8.50;4.50;;;;;;;2.58;71.93;100664.23;24464;1338;3028911;-63
2022/11/29 00:07:48;;;;;;;11.00;5.20;;;;;;;2.48;72.10;100665.70;24539;1337;3028057;-60
2022/11/29 00:10:17;;;;;;;10.40;4.50;;;;;;;2.53;71.83;100664.10;24492;1337;3053083;-66
2022/11/29 00:13:11;;;;;;;;;;;;;;;2.27;72.27;100659.29;24488;1333;3051482;-66
2022/11/29 00:15:40;;;;;;;9.70;4.70;;;;;;;2.06;72.50;100657.71;24497;1334;3027807;-63
2022/11/29 00:18:09;;;;;;;10.40;5.00;;;;;;;1.86;73.15;100654.89;24463;1334;3052121;-68
2022/11/29 00:20:38;;;;;;;9.30;5.00;;;;;;;1.74;73.54;100656.01;24500;1327;3028182;-62
2022/11/29 00:23:07;;;;;;;11.20;5.30;;;;;;;1.57;73.68;100656.25;24500;1334;3051266;-63
2022/11/29 00:25:37;;;;;;;11.30;4.90;;;;;;;1.42;74.29;100659.42;24479;1330;3028807;-64
2022/11/29 00:28:06;;;;;;;11.50;4.90;;;;;;;1.46;74.55;100659.77;24431;1340;3055891;-60
2022/11/29 00:30:36;;;;;;;10.00;4.70;;;;;;;1.53;74.50;100659.73;24447;1339;3028496;-67
2022/11/29 00:33:05;;;;;;;8.60;4.40;;;;;;;1.51;74.24;100659.73;24484;1325;3028120;-73
2022/11/29 00:35:34;;;;;;;10.10;4.90;;;;;;;1.52;74.33;100661.11;24430;1339;3056499;-69
2022/11/29 00:38:03;;;;;;;10.60;4.70;;;;;;;1.55;74.57;100658.52;24510;1334;3028646;-63
2022/11/29 00:40:32;;;;;;;8.00;4.70;;;;;;;1.51;74.51;100656.97;24446;1339;3049862;-71
2022/11/29 00:43:01;;;;;;;9.00;4.40;;;;;;;1.49;74.39;100655.44;24520;1327;3026652;-69
2022/11/29 00:45:30;;;;;;;12.30;5.30;;;;;;;1.44;74.84;100653.90;24426;1330;3067620;-63
2022/11/29 00:47:59;;;;;;;11.80;4.60;;;;;;;1.54;74.74;100651.95;24518;1331;3026930;-69
2022/11/29 00:50:28;;;;;;;12.90;5.10;;;;;;;1.41;74.65;100653.73;24429;1339;3049443;-67
2022/11/29 00:52:57;;;;;;;10.70;4.80;;;;;;;1.44;75.00;100658.56;24495;1328;3028804;-66
2022/11/29 00:55:27;;;;;;;8.40;4.30;;;;;;;1.53;75.06;100654.89;24459;1343;3051903;-62
2022/11/29 00:57:56;;;;;;;10.10;5.50;;;;;;;1.43;75.10;100656.14;24465;1334;3027461;-67
2022/11/29 01:00:25;;;;;;;9.50;4.40;;;;;;;1.38;75.03;100662.73;24443;1334;3049886;-63
2022/11/29 01:02:54;;;;;;;10.30;4.60;;;;;;;1.19;76.03;100662.96;24475;1333;3028459;-67
2022/11/29 01:05:23;;;;;;;11.80;4.60;;;;;;;1.72;74.90;100668.61;24469;1344;3051932;-62
2022/11/29 01:07:52;;;;;;;8.10;3.70;;;;;;;2.34;72.46;100664.25;24469;1333;3027984;-70
2022/11/29 01:10:21;;;;;;;12.00;4.40;;;;;;;2.59;71.24;100665.43;24505;1340;3052106;-66
2022/11/29 01:12:50;;;;;;;8.60;4.30;;;;;;;2.62;71.41;100661.95;24480;1334;3025797;-64
2022/11/29 01:15:20;;;;;;;12.00;3.80;;;;;;;2.55;71.31;100662.89;24515;1334;3056028;-67
2022/11/29 01:17:49;;;;;;;10.50;4.20;;;;;;;2.39;71.76;100663.17;24466;1324;3028023;-60
2022/11/29 01:20:18;;;;;;;11.70;4.90;;;;;;;2.13;72.32;100663.36;24461;1331;3049354;-59
2022/11/29 01:22:47;;;;;;;8.00;4.10;;;;;;;2.03;72.81;100660.15;24522;1322;3028491;-67
2022/11/29 01:25:18;;;;;;;12.60;5.10;;;;;;;1.97;73.26;100654.32;24472;1334;3068383;-65
2022/11/29 01:27:47;;;;;;;8.40;4.60;;;;;;;1.90;73.59;100650.55;24510;1337;3026042;-64
2022/11/29 01:30:16;;;;;;;9.50;5.10;;;;;;;1.83;73.65;100648.17;24509;1322;3028803;-66
2022/11/29 01:32:45;;;;;;;11.10;4.70;;;;;;;1.68;74.23;100647.90;24452;1331;3068204;-66
2022/11/29 01:35:13;;;;;;;11.00;5.40;;;;;;;1.45;75.01;100646.63;24530;1324;3028334;-68
2022/11/29 01:37:43;;;;;;;9.60;4.60;;;;;;;1.45;75.19;100645.09;24499;1326;3049119;-62
2022/11/29 01:40:12;;;;;;;9.00;4.60;;;;;;;1.35;75.81;100644.10;24523;1330;3026923;-63
2022/11/29 01:42:41;;;;;;;10.60;4.90;;;;;;;1.37;75.85;100645.28;24551;1341;3052250;-60
2022/11/29 01:45:24;;;;;;;8.60;4.60;;;;;;;1.40;75.45;100650.28;24499;1333;3028834;-67
2022/11/29 01:47:54;;;;;;;15.90;5.00;;;;;;;1.24;76.23;100653.27;24489;1331;3051215;-62
2022/11/29 01:50:24;;;;;;;13.20;4.70;;;;;;;1.43;76.17;100654.58;24552;1333;3025684;-64
2022/11/29 01:52:52;;;;;;;9.10;5.10;;;;;;;1.42;75.89;100647.52;24491;1333;3028435;-69
2022/11/29 01:55:22;;;;;;;12.80;4.80;;;;;;;1.29;75.95;100648.25;24480;1340;3050401;-65
2022/11/29 01:57:51;;;;;;;9.70;4.30;;;;;;;1.38;75.62;100646.66;24463;1332;3028076;-63
2022/11/29 02:00:21;;;;;;;12.20;4.60;;;;;;;1.35;75.63;100648.23;24411;1341;3052915;-65
2022/11/29 02:02:56;;;;;;;9.90;4.70;;;;;;;1.18;75.99;100652.60;24474;1332;3026942;-64
2022/11/29 02:05:25;;;;;;;9.50;3.90;;;;;;;1.27;76.19;100648.27;24505;1334;3052338;-67
2022/11/29 02:07:55;;;;;;;5.20;3.00;;;;;;;1.81;74.81;100645.24;24461;1334;3025913;-65
2022/11/29 02:10:30;;;;;;;8.70;3.40;;;;;;;2.47;72.39;100644.77;24466;1333;3028919;-62
2022/11/29 02:13:36;;;;;;;5.20;3.10;;;;;;;2.71;71.66;100643.02;24501;1338;3053093;-60
2022/11/29 02:16:27;;;;;;;7.60;4.40;;;;;;;2.50;71.33;100645.29;24503;1334;3049814;-63
2022/11/29 02:19:09;;;;;;;6.80;4.40;;;;;;;2.03;72.79;100656.17;24477;1330;3069221;-64
2022/11/29 02:22:13;;;;;;;8.80;4.00;;;;;;;1.97;73.47;100655.52;24529;1334;3049220;-62
2022/11/29 02:25:04;;;;;;;10.40;4.20;;;;;;;1.83;74.60;100656.13;24440;1330;3056383;-61
2022/11/29 02:27:53;;;;;;;7.00;3.70;;;;;;;1.74;74.28;100650.65;24583;1337;3052474;-65
2022/11/29 02:30:31;;;;;;;6.90;4.00;;;;;;;1.40;75.52;100645.62;24493;1323;3052952;-61
2022/11/29 02:33:24;;;;;;;6.40;3.90;;;;;;;1.39;76.42;100644.42;24480;1326;3050710;-63
2022/11/29 02:35:59;;;;;;;8.70;4.10;;;;;;;1.35;76.66;100644.96;24527;1334;3053155;-63
2022/11/29 02:38:31;;;;;;;7.90;4.00;;;;;;;1.10;77.16;100640.20;24497;1334;3049495;-60
2022/11/29 02:41:22;;;;;;;12.40;4.70;;;;;;;1.08;77.40;100641.24;24516;1341;3027760;-64
2022/11/29 02:44:15;;;;;;;8.10;3.70;;;;;;;1.11;77.22;100636.06;24522;1334;3049701;-65
2022/11/29 02:47:25;;;;;;;8.30;4.40;;;;;;;1.05;77.37;100632.63;24507;1334;3056272;-63
2022/11/29 02:50:10;;;;;;;6.50;3.40;;;;;;;0.98;77.99;100627.81;24480;1329;3052081;-66
2022/11/29 02:52:49;;;;;;;4.90;3.60;;;;;;;1.02;77.74;100628.66;24517;1334;3052831;-65
2022/11/29 02:55:36;;;;;;;6.10;3.90;;;;;;;1.04;77.97;100628.67;24510;1325;3049896;-64
2022/11/29 02:58:27;;;;;;;10.80;4.20;;;;;;;0.98;78.28;100628.50;24538;1334;3052236;-65
2022/11/29 03:01:10;;;;;;;7.80;2.90;;;;;;;1.82;76.10;100625.02;24483;1334;3049255;-65
2022/11/29 03:03:53;;;;;;;4.40;2.60;;;;;;;2.24;73.73;100619.71;24492;1332;3069085;-64
2022/11/29 03:06:30;;;;;;;7.10;3.20;;;;;;;2.47;73.25;100620.58;24481;1337;3050580;-64
2022/11/29 03:09:28;;;;;;;8.50;3.70;;;;;;;2.22;72.80;100619.22;24535;1331;3057128;-64
2022/11/29 03:12:09;;;;;;;8.10;3.50;;;;;;;1.84;73.96;100627.09;24471;1324;3053225;-60
2022/11/29 03:14:56;;;;;;;7.80;3.50;;;;;;;1.89;74.30;100627.92;24540;1334;3052117;-64
2022/11/29 03:18:08;;;;;;;8.20;4.30;;;;;;;1.63;74.96;100629.10;24511;1324;3050497;-67
2022/11/29 03:20:57;;;;;;;5.40;3.40;;;;;;;1.57;75.52;100630.00;24548;1334;3052461;-67
2022/11/29 03:23:44;;;;;;;5.50;3.50;;;;;;;1.50;75.92;100630.73;24550;1324;3048739;-64
2022/11/29 03:26:16;;;;;;;8.40;4.10;;;;;;;1.37;76.02;100636.14;24519;1324;3069403;-60
2022/11/29 03:29:27;;;;;;;8.30;4.50;;;;;;;1.31;76.07;100640.66;24512;1337;3028078;-68
2022/11/29 03:32:26;;;;;;;8.20;4.20;;;;;;;1.36;75.88;100638.39;24443;1334;3056203;-65
2022/11/29 03:35:02;;;;;;;8.10;4.10;;;;;;;1.29;76.11;100638.77;24474;1324;3052420;-64
2022/11/29 03:37:47;;;;;;;7.50;3.30;;;;;;;1.24;76.32;100643.79;24551;1335;3052952;-63
2022/11/29 03:40:21;;;;;;;7.40;4.10;;;;;;;1.31;75.98;100642.20;24500;1331;3051554;-63
2022/11/29 03:42:55;;;;;;;7.40;4.30;;;;;;;1.17;77.07;100645.36;24490;1326;3052832;-65
2022/11/29 03:45:56;;;;;;;9.10;4.10;;;;;;;1.10;77.30;100647.10;24549;1327;3048897;-65
2022/11/29 03:48:30;;;;;;;7.70;4.10;;;;;;;0.90;77.17;100643.00;24431;1324;3068787;-67
2022/11/29 03:51:17;;;;;;;13.40;4.10;;;;;;;0.86;77.01;100642.68;24512;1339;3050069;-64
2022/11/29 03:54:04;;;;;;;10.60;4.20;;;;;;;0.89;77.09;100649.23;24535;1323;3056471;-66
2022/11/29 03:56:35;;;;;;;7.70;3.60;;;;;;;0.99;76.89;100647.48;24511;1334;3052572;-61
2022/11/29 03:59:20;;;;;;;8.20;3.70;;;;;;;1.04;76.73;100656.27;24502;1326;3025601;-66
2022/11/29 04:02:31;;;;;;;9.80;3.90;;;;;;;1.66;75.31;100661.21;24461;1327;3052210;-67
2022/11/29 04:05:39;;;;;;;5.50;2.40;;;;;;;2.39;72.44;100656.77;24488;1335;3052802;-64
2022/11/29 04:08:45;;;;;;;8.20;3.20;;;;;;;2.34;71.84;100659.05;24340;1340;3049243;-67
2022/11/29 04:11:14;;;;;;;8.60;4.30;;;;;;;2.08;72.39;100656.30;24522;1331;3069786;-64
2022/11/29 04:14:04;;;;;;;8.50;4.70;;;;;;;1.65;73.81;100658.98;24531;1317;3026863;-66
2022/11/29 04:16:55;;;;;;;8.50;4.50;;;;;;;1.46;74.28;100658.55;24527;1334;3049696;-66
2022/11/29 04:19:37;;;;;;;7.20;3.90;;;;;;;1.16;75.96;100668.15;24485;1334;3068454;-67
2022/11/29 04:22:31;;;;;;;6.20;3.80;;;;;;;1.21;75.48;100666.40;24517;1334;3050687;-62
2022/11/29 04:25:14;;;;;;;6.90;4.00;;;;;;;1.19;76.25;100670.20;24520;1332;3056660;-66
2022/11/29 04:27:48;;;;;;;7.80;3.90;;;;;;;1.21;75.91;100667.61;24519;1326;3052478;-68
2022/11/29 04:30:21;;;;;;;9.30;4.20;;;;;;;1.03;75.88;100667.48;24493;1334;3053401;-60
2022/11/29 04:33:35;;;;;;;6.10;3.70;;;;;;;0.96;76.55;100668.71;24532;1324;3026700;-65
2022/11/29 04:36:39;;;;;;;7.80;3.80;;;;;;;0.97;76.55;100676.99;24323;1348;3053127;-67
2022/11/29 04:39:22;;;;;;;8.30;4.00;;;;;;;0.84;76.69;100682.02;24421;1333;3049382;-65
2022/11/29 04:42:06;;;;;;;10.10;3.60;;;;;;;0.82;77.25;100688.74;24454;1324;3069277;-62
2022/11/29 04:45:02;;;;;;;8.60;4.60;;;;;;;0.85;76.97;100693.39;24477;1334;3049885;-62
2022/11/29 04:47:49;;;;;;;8.60;4.10;;;;;;;0.89;77.25;100700.11;24473;1334;3057189;-63
2022/11/29 04:50:35;;;;;;;8.60;4.40;;;;;;;0.93;77.48;100702.71;24508;1324;3051951;-62
2022/11/29 04:53:10;;;;;;;7.20;3.80;;;;;;;0.91;77.70;100703.92;24513;1326;3053655;-62
2022/11/29 04:55:54;;;;;;;6.30;4.10;;;;;;;0.89;77.19;100711.16;24492;1326;3051425;-60
2022/11/29 04:58:40;;;;;;;6.30;3.10;;;;;;;1.51;75.78;100715.16;24505;1330;3053041;-63
2022/11/29 05:01:18;;;;;;;8.50;2.80;;;;;;;2.06;73.30;100714.40;24442;1328;3048589;-68
2022/11/29 05:03:56;;;;;;;6.00;3.00;;;;;;;2.02;72.91;100714.24;24471;1332;3069360;-61
2022/11/29 05:07:04;;;;;;;8.50;3.70;;;;;;;2.02;73.23;100713.04;24501;1335;3049907;-62
2022/11/29 05:09:42;;;;;;;11.50;4.20;;;;;;;1.67;74.08;100719.59;24530;1333;3057051;-64
2022/11/29 05:12:23;;;;;;;6.10;3.30;;;;;;;1.43;74.60;100724.86;24473;1343;3051756;-65
2022/11/29 05:15:15;;;;;;;10.70;3.90;;;;;;;1.32;75.29;100732.67;24471;1329;3053010;-69
2022/11/29 05:17:58;;;;;;;6.90;3.50;;;;;;;1.14;76.08;100732.52;24479;1333;3051617;-62
2022/11/29 05:20:53;;;;;;;11.60;3.90;;;;;;;1.06;76.49;100735.47;24495;1333;3053138;-61
2022/11/29 05:23:32;;;;;;;8.90;3.70;;;;;;;1.03;76.82;100734.45;24470;1332;3049410;-64
2022/11/29 05:26:18;;;;;;;7.10;3.50;;;;;;;0.87;77.42;100734.98;24503;1334;3068705;-67
2022/11/29 05:28:55;;;;;;;4.90;2.90;;;;;;;0.76;78.32;100740.50;24479;1334;3050169;-59
2022/11/29 05:31:34;;;;;;;11.10;4.10;;;;;;;0.78;78.26;100742.57;24492;1333;3055827;-65
2022/11/29 05:34:25;;;;;;;7.40;3.80;;;;;;;0.91;78.16;100745.15;24525;1334;3052067;-63
2022/11/29 05:37:06;;;;;;;6.70;2.90;;;;;;;1.05;77.69;100740.48;24545;1334;3054892;-61
2022/11/29 05:39:56;;;;;;;8.50;3.50;;;;;;;0.86;77.95;100744.80;24462;1330;3053148;-61
2022/11/29 05:42:57;;;;;;;5.50;3.10;;;;;;;0.83;78.41;100747.21;24497;1332;3054125;-63
2022/11/29 05:45:48;;;;;;;8.20;3.00;;;;;;;0.80;78.49;100749.11;24492;1337;3049711;-63
2022/11/29 05:48:23;;;;;;;5.50;2.90;;;;;;;1.44;77.15;100747.48;24510;1331;3071301;-65
2022/11/29 05:51:09;;;;;;;6.00;2.60;;;;;;;2.00;74.32;100736.04;24523;1334;3050616;-68
2022/11/29 05:53:54;;;;;;;10.40;3.70;;;;;;;1.95;73.92;100744.19;24502;1333;3056777;-63
2022/11/29 05:56:39;;;;;;;6.50;3.10;;;;;;;1.76;74.08;100744.96;24393;1327;3052376;-65
2022/11/29 05:59:16;;;;;;;10.60;4.60;;;;;;;1.56;74.53;100750.55;24469;1340;3054395;-64
2022/11/29 06:02:00;;;;;;;10.90;4.00;;;;;;;1.30;76.14;100757.54;24460;1324;3053828;-64
2022/11/29 06:05:02;;;;;;;7.60;4.10;;;;;;;1.24;75.82;100752.54;24563;1341;3053118;-63
2022/11/29 06:07:55;;;;;;;9.10;3.90;;;;;;;0.92;76.16;100748.42;24489;1334;3049174;-66
2022/11/29 06:10:27;;;;;;;8.00;4.30;;;;;;;0.76;77.12;100747.05;24458;1333;3068889;-62
2022/11/29 06:13:36;;;;;;;8.40;4.20;;;;;;;0.61;77.82;100749.10;24608;1333;3050046;-65
2022/11/29 06:16:30;;;;;;;8.90;3.80;;;;;;;0.55;77.60;100749.63;24373;1334;3057691;-64
2022/11/29 06:19:26;;;;;;;9.50;3.60;;;;;;;0.59;77.45;100752.05;24459;1327;3052667;-62
2022/11/29 06:22:22;;;;;;;6.50;3.20;;;;;;;0.57;77.27;100749.97;24515;1327;3053537;-62
2022/11/29 06:25:15;;;;;;;9.30;3.80;;;;;;;0.66;76.87;100743.42;24468;1327;3051949;-61
2022/11/29 06:28:26;;;;;;;6.20;3.40;;;;;;;0.67;76.37;100742.38;24450;1334;3052856;-63
2022/11/29 06:31:03;;;;;;;8.60;3.70;;;;;;;0.49;76.69;100744.61;24384;1330;3049398;-61
2022/11/29 06:33:38;;;;;;;8.90;3.40;;;;;;;0.49;76.99;100743.05;24419;1326;3069225;-64
2022/11/29 06:36:23;;;;;;;9.70;4.10;;;;;;;0.56;76.81;100742.90;24479;1334;3050336;-61
2022/11/29 06:38:52;;;;;;;12.10;4.00;;;;;;;0.55;76.39;100742.73;24483;1334;3056239;-66
2022/11/29 06:41:22;;;;;;;9.60;3.80;;;;;;;0.63;76.49;100747.73;24468;1326;3027246;-66
2022/11/29 06:43:51;;;;;;;7.80;3.50;;;;;;;0.54;76.60;100754.45;24450;1340;3050347;-65
2022/11/29 06:46:44;;;;;;;6.80;3.70;;;;;;;0.69;76.58;100752.39;24458;1334;3026692;-62
2022/11/29 06:49:25;;;;;;;7.80;3.50;;;;;;;0.72;75.93;100753.42;24492;1337;3051596;-65
2022/11/29 06:52:04;;;;;;;9.00;3.60;;;;;;;0.62;76.06;100757.90;24511;1331;3053401;-65
2022/11/29 06:55:04;;;;;;;7.10;3.80;;;;;;;0.55;75.51;100764.45;24459;1327;3050763;-64
2022/11/29 06:57:52;;;;;;;12.50;4.30;;;;;;;0.55;76.11;100753.41;24507;1334;3052159;-62
2022/11/29 07:00:25;;;;;;;7.90;3.10;;;;;;;0.51;76.17;100758.77;24493;1334;3049278;-64
2022/11/29 07:03:21;;;;;;;6.60;3.10;;;;;;;0.50;75.75;100757.20;24471;1334;3069331;-68
2022/11/29 07:05:50;;;;;;;7.60;3.20;;;;;;;0.44;76.12;100758.75;24506;1334;3050176;-69
2022/11/29 07:08:21;;;;;;;9.90;3.40;;;;;;;0.50;75.91;100755.98;24492;1324;3028278;-65
2022/11/29 07:10:52;;;;;;;10.90;3.70;;;;;;;0.55;74.85;100749.97;24533;1324;3025707;-64
2022/11/29 07:13:22;;;;;;;9.00;3.60;;;;;;;0.31;75.62;100744.59;24499;1335;3029032;-69
2022/11/29 07:16:00;;;;;;;8.90;2.90;;;;;;;0.37;76.57;100742.02;24486;1333;3024945;-62
2022/11/29 07:18:29;;;;;;;6.90;2.80;;;;;;;0.98;74.58;100739.27;24490;1330;3053722;-64
2022/11/29 07:21:20;;;;;;;9.80;2.80;;;;;;;1.79;72.01;100733.38;24520;1317;3026494;-68
2022/11/29 07:24:02;;;;;;;6.70;2.50;;;;;;;1.70;70.72;100733.92;24505;1333;3051377;-63
2022/11/29 07:26:38;;;;;;;4.30;2.80;;;;;;;1.63;70.57;100737.91;24538;1326;3054266;-63
2022/11/29 07:29:19;;;;;;;7.30;3.20;;;;;;;1.70;70.41;100736.00;24754;1334;3048930;-63
2022/11/29 07:32:26;;;;;;;7.00;3.10;;;;;;;1.19;71.39;100733.37;24881;1334;3069070;-62
2022/11/29 07:35:21;;;;;;;8.10;3.30;;;;;;;1.22;71.44;100738.03;24562;1333;3049835;-61
2022/11/29 07:38:06;;;;;;;11.50;3.90;;;;;;;1.15;71.61;100734.60;24627;1317;3057931;-62
2022/11/29 07:40:50;;;;;;;11.80;3.70;;;;;;;0.95;71.93;100734.28;24464;1324;3052888;-61
2022/11/29 07:43:53;;;;;;;7.80;3.70;;;;;;;0.81;72.65;100731.52;24527;1325;3055889;-60
2022/11/29 07:46:22;;;;;;;9.00;3.40;;;;;;;0.89;73.11;100729.80;24490;1322;3051515;-64
2022/11/29 07:48:51;;;;;;;6.60;2.80;;;;;;;0.99;72.92;100724.95;24499;1317;3028699;-64
2022/11/29 07:51:20;;;;;;;7.30;3.10;;;;;;;1.10;72.47;100721.65;24457;1337;3053962;-67
2022/11/29 07:53:49;;;;;;;8.90;3.50;;;;;;;1.13;72.31;100715.61;24506;1332;3028453;-59
2022/11/29 07:56:18;;;;;;;6.00;2.90;;;;;;;1.01;72.83;100711.15;24487;1331;3051155;-63
2022/11/29 07:58:47;;;;;;;5.70;2.30;;;;;;;1.02;72.25;100709.77;24528;1333;3028271;-65
2022/11/29 08:01:16;;;;;;;10.80;3.50;;;;;;;0.94;72.32;100713.05;24495;1334;3056368;-62
2022/11/29 08:03:45;;;;;;;6.40;3.40;;;;;;;1.08;72.41;100705.09;24507;1333;3028584;-65
2022/11/29 08:06:23;;;;;;;11.80;4.10;;;;;;;1.19;71.62;100696.95;24472;1337;3051383;-64
2022/11/29 08:08:52;;;;;;;8.80;3.20;;;;;;;1.09;71.93;100689.39;24478;1317;3056079;-62
2022/11/29 08:11:21;;;;;;;9.10;3.30;;;;;;;1.26;71.26;100691.07;24522;1324;3028140;-62
2022/11/29 08:14:01;;;;;;;11.40;3.60;;;;;;;1.31;70.95;100682.08;24501;1338;3049876;-63
2022/11/29 08:16:30;;;;;;;8.60;4.00;;;;;;;1.42;70.24;100682.57;24467;1332;3056708;-62
2022/11/29 08:19:00;;;;;;;7.50;3.60;;;;;;;1.52;69.70;100675.61;24536;1331;3028775;-66
2022/11/29 08:21:28;;;;;;;13.30;3.10;;;;;;;1.47;69.40;100673.56;24516;1324;3028053;-68
2022/11/29 08:23:57;;;;;;;9.10;3.80;;;;;;;1.42;69.78;100676.35;24553;1334;3055014;-66
2022/11/29 08:26:28;;;;;;;7.00;2.50;;;;;;;1.55;68.58;100669.38;24467;1323;3028283;-72
2022/11/29 08:28:57;;;;;;;8.60;2.90;;;;;;;1.64;67.99;100658.81;24588;1326;3050463;-69
2022/11/29 08:31:28;;;;;;;5.80;2.80;;;;;;;1.69;67.68;100660.34;24484;1331;3028871;-64
2022/11/29 08:33:57;;;;;;;6.00;3.20;;;;;;;1.65;68.03;100653.11;24548;1333;3028247;-63
2022/11/29 08:36:26;;;;;;;9.00;3.20;;;;;;;1.72;68.18;100654.80;24454;1338;3049817;-62
2022/11/29 08:38:55;;;;;;;7.50;2.70;;;;;;;1.90;67.54;100655.57;24556;1333;3028244;-63
2022/11/29 08:41:24;;;;;;;14.10;3.50;;;;;;;1.74;66.99;100660.83;24450;1330;3068210;-61
2022/11/29 08:43:53;;;;;;;6.80;2.50;;;;;;;1.89;66.85;100658.85;24530;1331;3028833;-62
2022/11/29 08:47:34;;;;;;;9.10;3.10;;;;;;;1.93;66.59;100661.59;24483;1331;3048679;-61
2022/11/29 08:49:11;;;;;;;7.40;2.90;;;;;;;2.01;66.43;100664.83;24522;1327;3068608;-63
2022/11/29 08:51:40;;;;;;;6.70;2.90;;;;;;;2.20;65.54;100659.16;24507;1324;3028050;-66
2022/11/29 08:54:09;;;;;;;6.40;3.30;;;;;;;2.29;65.21;100658.23;24498;1337;3049009;-65
2022/11/29 08:56:38;;;;;;;8.20;2.90;;;;;;;2.23;64.80;100659.32;24538;1326;3025917;-61
2022/11/29 08:59:07;;;;;;;10.00;2.90;;;;;;;2.35;65.17;100659.05;24509;1340;3052061;-58
2022/11/29 09:01:37;;;;;;;6.20;2.90;;;;;;;2.54;64.27;100667.91;24509;1334;3026578;-66
2022/11/29 09:04:09;;;;;;;5.40;2.80;;;;;;;2.59;64.01;100676.67;24506;1324;3028608;-62
2022/11/29 09:06:41;;;;;;;10.00;2.90;;;;;;;2.43;64.11;100674.20;24478;1334;3053009;-62
2022/11/29 09:09:10;;;;;;;7.40;3.30;;;;;;;2.66;63.93;100675.58;24511;1325;3025888;-63
2022/11/29 09:11:39;;;;;;;5.30;2.60;;;;;;;2.66;63.37;100674.20;24542;1326;3025907;-63
2022/11/29 09:14:12;;;;;;;7.70;3.50;;;;;;;2.73;62.91;100667.04;24449;1334;3052687;-60
2022/11/29 09:16:41;;;;;;;7.30;3.20;;;;;;;2.64;62.90;100664.36;24504;1333;3026484;-61
2022/11/29 09:19:35;;;;;;;;;;;;;;;2.80;62.23;100655.58;24567;1340;3068997;-63
2022/11/29 09:22:04;;;;;;;7.80;3.10;;;;;;;2.72;61.82;100652.88;24466;1327;3028888;-59
2022/11/29 09:24:33;;;;;;;4.00;2.30;;;;;;;2.81;61.55;100647.60;24490;1334;3048143;-64
2022/11/29 09:27:03;;;;;;;7.00;2.80;;;;;;;2.82;61.50;100647.05;24511;1330;3028265;-60
2022/11/29 09:29:34;;;;;;;4.40;2.60;;;;;;;2.70;61.51;100649.95;24485;1324;3052235;-62
2022/11/29 09:32:04;;;;;;;5.30;2.60;;;;;;;2.81;61.55;100646.39;24562;1334;3025433;-61
2022/11/29 09:34:34;;;;;;;7.50;3.40;;;;;;;2.95;61.57;100640.17;24556;1334;3027687;-66
2022/11/29 09:37:29;;;;;;;10.00;3.50;;;;;;;2.98;61.77;100639.11;24504;1334;3049828;-62
2022/11/29 09:39:58;;;;;;;8.60;2.50;;;;;;;2.94;61.74;100625.98;24492;1324;3026254;-64
2022/11/29 09:43:00;;;;;;;4.90;2.20;;;;;;;2.99;61.45;100624.89;24591;1334;3030576;-66
2022/11/29 09:45:31;;;;;;;8.30;2.80;;;;;;;3.08;60.79;100624.27;24556;1337;3053699;-64
2022/11/29 09:48:12;;;;;;;6.70;2.50;;;;;;;2.91;61.44;100625.50;24510;1324;3026018;-60
2022/11/29 09:50:53;;;;;;;3.40;1.80;;;;;;;3.05;61.27;100622.77;24570;1330;3051801;-63
2022/11/29 09:53:29;;;;;;;7.00;3.10;;;;;;;2.93;60.99;100624.80;24562;1333;3049483;-65
2022/11/29 09:56:29;;;;;;;6.30;2.60;;;;;;;3.02;60.64;100634.21;24509;1326;3068570;-64
2022/11/29 09:58:59;;;;;;;5.70;2.60;;;;;;;3.14;59.95;100634.61;24480;1339;3049888;-65
2022/11/29 10:01:31;;;;;;;5.60;2.20;;;;;;;3.00;60.47;100634.58;24510;1334;3025828;-66
2022/11/29 10:04:04;;;;;;;7.30;2.60;;;;;;;3.01;59.94;100629.39;24573;1325;3026336;-62
2022/11/29 10:07:12;;;;;;;7.10;2.80;;;;;;;3.01;59.95;100632.33;24507;1335;3053648;-64
2022/11/29 10:09:51;;;;;;;5.20;2.20;;;;;;;3.05;59.60;100632.80;24529;1324;3051510;-68
2022/11/29 10:12:37;;;;;;;7.90;2.80;;;;;;;3.13;59.71;100633.41;24595;1331;3053762;-69
2022/11/29 10:15:27;;;;;;;8.00;2.70;;;;;;;3.32;59.66;100621.40;24541;1338;3049052;-68
2022/11/29 10:18:03;;;;;;;7.30;2.40;;;;;;;3.52;58.98;100622.53;24538;1334;3068424;-64
2022/11/29 10:20:36;;;;;;;7.80;2.60;;;;;;;3.61;58.43;100617.05;24518;1334;3050489;-66
2022/11/29 10:23:15;;;;;;;6.30;2.50;;;;;;;3.65;58.06;100617.86;24507;1326;3028531;-61
2022/11/29 10:25:46;;;;;;;4.60;2.20;;;;;;;3.69;57.83;100619.71;24555;1326;3051833;-67
2022/11/29 10:28:17;;;;;;;4.90;2.60;;;;;;;3.55;58.30;100618.52;24617;1340;3026618;-70
2022/11/29 10:30:46;;;;;;;6.10;2.70;;;;;;;3.59;58.02;100623.48;24550;1317;3026305;-66
2022/11/29 10:33:35;;;;;;;6.90;2.60;;;;;;;3.65;57.69;100627.73;24601;1324;3028111;-69
2022/11/29 10:36:21;;;;;;;4.70;2.60;;;;;;;3.86;57.63;100628.14;24558;1334;3049196;-67
2022/11/29 10:38:49;;;;;;;4.40;2.30;;;;;;;3.70;56.73;100634.08;24527;1337;3069088;-62
2022/11/29 10:41:21;;;;;;;6.50;2.20;;;;;;;3.44;57.81;100633.04;24502;1334;3028577;-64
2022/11/29 10:43:50;;;;;;;6.60;2.70;;;;;;;3.44;57.81;100626.80;24552;1334;3048087;-67
2022/11/29 10:46:27;;;;;;;7.70;2.70;;;;;;;3.45;58.01;100625.92;24476;1331;3026115;-69
2022/11/29 10:48:57;;;;;;;5.70;2.80;;;;;;;3.56;57.77;100617.98;24550;1334;3049227;-66
2022/11/29 10:51:26;;;;;;;6.10;2.20;;;;;;;3.66;57.56;100623.23;24532;1327;3026535;-67
2022/11/29 10:53:56;;;;;;;7.80;2.90;;;;;;;3.50;57.80;100619.45;24458;1334;3028645;-68
2022/11/29 10:56:28;;;;;;;9.60;3.50;;;;;;;3.64;57.56;100620.48;24568;1334;3049742;-64
2022/11/29 10:59:04;;;;;;;6.20;2.50;;;;;;;3.45;57.54;100618.83;24474;1336;3057182;-64
2022/11/29 11:01:38;;;;;;;4.30;2.50;;;;;;;3.64;57.39;100623.08;24607;1317;3025795;-64
2022/11/29 11:04:36;;;;;;;5.20;2.20;;;;;;;3.75;57.26;100630.36;24599;1333;3052509;-64
2022/11/29 11:07:06;;;;;;;7.90;2.60;;;;;;;3.44;57.24;100633.38;24555;1333;3026364;-66
2022/11/29 11:09:46;;;;;;;6.90;2.60;;;;;;;3.62;57.32;100630.20;24487;1327;3028104;-62
2022/11/29 11:12:16;;;;;;;6.10;2.20;;;;;;;3.52;57.12;100632.94;24518;1334;3052987;-66
2022/11/29 11:14:46;;;;;;;6.20;2.50;;;;;;;3.46;57.14;100636.65;24517;1330;3026405;-62
2022/11/29 11:17:31;;;;;;;5.40;2.50;;;;;;;3.37;57.25;100629.30;24506;1339;3027628;-63
2022/11/29 11:20:13;;;;;;;4.50;2.20;;;;;;;3.47;57.09;100620.18;24570;1326;3053035;-66
2022/11/29 11:22:42;;;;;;;6.20;2.60;;;;;;;3.63;56.38;100620.84;24482;1337;3052330;-66
2022/11/29 11:25:33;;;;;;;7.20;3.00;;;;;;;3.44;56.62;100614.67;24595;1334;3026521;-60
2022/11/29 11:28:16;;;;;;;6.70;2.90;;;;;;;3.49;57.46;100605.41;24537;1324;3049113;-60
2022/11/29 11:30:50;;;;;;;5.60;2.10;;;;;;;3.65;57.12;100608.67;24032;1327;3069427;-61
2022/11/29 11:33:19;;;;;;;5.10;2.00;;;;;;;3.71;56.87;100607.39;24544;1324;3050684;-65
2022/11/29 11:36:13;;;;;;;9.80;2.40;;;;;;;3.67;56.70;100605.89;24512;1330;3025438;-67
2022/11/29 11:38:53;;;;;;;7.20;1.60;;;;;;;3.35;57.20;100606.81;24497;1333;3052827;-70
2022/11/29 11:44:25;;;;;;;4.50;2.30;;;;;;;3.47;56.49;100595.23;24525;1324;3050934;-68
2022/11/29 11:46:54;;;;;;;4.50;2.10;;;;;;;3.39;56.79;100595.68;24475;1334;3052595;-70
2022/11/29 11:49:25;;;;;;;7.40;2.90;;;;;;;3.46;56.80;100596.63;24485;1327;3028696;-63
2022/11/29 11:51:55;;;;;;;5.30;2.70;;;;;;;3.50;56.92;100593.98;24435;1326;3051802;-71
2022/11/29 11:54:25;;;;;;;4.90;2.30;;;;;;;3.67;56.45;100589.42;24535;1334;3025129;-70
2022/11/29 11:56:54;;;;;;;6.50;2.30;;;;;;;3.71;56.29;100592.99;24491;1324;3026316;-62
2022/11/29 11:59:25;;;;;;;4.90;2.60;;;;;;;3.40;55.94;100598.09;24516;1334;3028722;-63
2022/11/29 12:02:45;;;;;;;6.70;2.60;;;;;;;3.30;55.85;100599.26;24521;1324;3051537;-63
2022/11/29 12:05:15;;;;;;;5.00;2.20;;;;;;;3.36;55.93;100591.92;24499;1332;3048791;-65
2022/11/29 12:07:54;;;;;;;5.90;2.30;;;;;;;3.40;55.75;100596.02;24456;1331;3028822;-60
2022/11/29 12:10:25;;;;;;;9.20;2.80;;;;;;;3.40;55.68;100588.05;24521;1334;3049366;-63
2022/11/29 12:12:54;;;;;;;7.20;2.10;;;;;;;3.23;55.59;100589.65;24491;1334;3028616;-61